sensor_id;sensor_type;location;lat;lon;timestamp;P1;durP1;ratioP1;P2;durP2;ratioP2
54517;SDS011;40423;53.176;6.002;2023-03-31T00:01:23;34.70;;;6.07;;
54517;SDS011;40423;53.176;6.002;2023-03-31T00:03:50;30.00;;;5.68;;
54517;SDS011;40423;53.176;6.002;2023-03-31T00:06:15;39.47;;;6.68;;
54517;SDS011;40423;53.176;6.002;2023-03-31T00:08:44;40.10;;;7.57;;
54517;SDS011;40423;53.176;6.002;2023-03-31T00:11:11;32.38;;;5.78;;
54517;SDS011;40423;53.176;6.002;2023-03-31T00:13:38;30.90;;;5.53;;
54517;SDS011;40423;53.176;6.002;2023-03-31T00:16:05;35.28;;;7.13;;
54517;SDS011;40423;53.176;6.002;2023-03-31T00:18:32;35.90;;;5.85;;
54517;SDS011;40423;53.176;6.002;2023-03-31T00:21:04;36.22;;;7.28;;
54517;SDS011;40423;53.176;6.002;2023-03-31T00:23:32;31.38;;;6.18;;
54517;SDS011;40423;53.176;6.002;2023-03-31T00:25:58;37.45;;;7.78;;
54517;SDS011;40423;53.176;6.002;2023-03-31T00:28:23;35.67;;;5.97;;
54517;SDS011;40423;53.176;6.002;2023-03-31T00:30:49;36.03;;;5.53;;
54517;SDS011;40423;53.176;6.002;2023-03-31T00:33:15;37.05;;;6.72;;
54517;SDS011;40423;53.176;6.002;2023-03-31T00:35:41;32.70;;;5.72;;
54517;SDS011;40423;53.176;6.002;2023-03-31T00:38:07;34.58;;;6.35;;
54517;SDS011;40423;53.176;6.002;2023-03-31T00:40:36;34.13;;;5.78;;
54517;SDS011;40423;53.176;6.002;2023-03-31T00:43:15;33.58;;;6.18;;
54517;SDS011;40423;53.176;6.002;2023-03-31T00:45:54;37.40;;;6.95;;
54517;SDS011;40423;53.176;6.002;2023-03-31T00:48:24;31.98;;;6.93;;
54517;SDS011;40423;53.176;6.002;2023-03-31T00:50:55;35.88;;;6.93;;
54517;SDS011;40423;53.176;6.002;2023-03-31T00:53:25;37.13;;;7.80;;
54517;SDS011;40423;53.176;6.002;2023-03-31T00:55:55;31.42;;;6.15;;
54517;SDS011;40423;53.176;6.002;2023-03-31T00:58:25;25.50;;;5.28;;
54517;SDS011;40423;53.176;6.002;2023-03-31T01:00:57;30.92;;;5.72;;
54517;SDS011;40423;53.176;6.002;2023-03-31T01:03:26;35.88;;;6.80;;
54517;SDS011;40423;53.176;6.002;2023-03-31T01:06:04;28.20;;;7.13;;
54517;SDS011;40423;53.176;6.002;2023-03-31T01:08:34;38.85;;;6.68;;
54517;SDS011;40423;53.176;6.002;2023-03-31T01:11:03;34.20;;;6.35;;
54517;SDS011;40423;53.176;6.002;2023-03-31T01:13:33;35.95;;;5.70;;
54517;SDS011;40423;53.176;6.002;2023-03-31T01:16:01;33.03;;;6.90;;
54517;SDS011;40423;53.176;6.002;2023-03-31T01:18:27;32.28;;;5.55;;
54517;SDS011;40423;53.176;6.002;2023-03-31T01:42:35;29.02;;;6.43;;
54517;SDS011;40423;53.176;6.002;2023-03-31T01:47:45;33.45;;;7.13;;
54517;SDS011;40423;53.176;6.002;2023-03-31T01:50:39;25.52;;;5.80;;
54517;SDS011;40423;53.176;6.002;2023-03-31T01:55:57;24.35;;;5.63;;
54517;SDS011;40423;53.176;6.002;2023-03-31T01:58:38;31.88;;;5.70;;
54517;SDS011;40423;53.176;6.002;2023-03-31T02:01:17;25.63;;;5.50;;
54517;SDS011;40423;53.176;6.002;2023-03-31T02:04:02;29.45;;;5.47;;
54517;SDS011;40423;53.176;6.002;2023-03-31T02:06:37;29.52;;;6.20;;
54517;SDS011;40423;53.176;6.002;2023-03-31T02:09:11;30.40;;;6.55;;
54517;SDS011;40423;53.176;6.002;2023-03-31T02:11:40;32.55;;;6.47;;
54517;SDS011;40423;53.176;6.002;2023-03-31T02:14:08;24.90;;;5.88;;
54517;SDS011;40423;53.176;6.002;2023-03-31T02:16:37;25.80;;;5.55;;
54517;SDS011;40423;53.176;6.002;2023-03-31T02:19:11;26.40;;;5.82;;
54517;SDS011;40423;53.176;6.002;2023-03-31T02:21:42;27.98;;;6.18;;
54517;SDS011;40423;53.176;6.002;2023-03-31T02:24:13;30.05;;;6.05;;
54517;SDS011;40423;53.176;6.002;2023-03-31T02:26:44;29.02;;;5.93;;
54517;SDS011;40423;53.176;6.002;2023-03-31T02:29:27;33.38;;;6.72;;
54517;SDS011;40423;53.176;6.002;2023-03-31T02:32:01;24.08;;;5.13;;
54517;SDS011;40423;53.176;6.002;2023-03-31T02:34:38;26.90;;;5.75;;
54517;SDS011;40423;53.176;6.002;2023-03-31T02:37:03;32.03;;;5.05;;
54517;SDS011;40423;53.176;6.002;2023-03-31T02:39:32;29.13;;;5.75;;
54517;SDS011;40423;53.176;6.002;2023-03-31T02:42:01;23.35;;;4.80;;
54517;SDS011;40423;53.176;6.002;2023-03-31T02:44:38;27.83;;;5.60;;
54517;SDS011;40423;53.176;6.002;2023-03-31T02:47:05;31.35;;;5.90;;
54517;SDS011;40423;53.176;6.002;2023-03-31T02:49:33;25.50;;;4.45;;
54517;SDS011;40423;53.176;6.002;2023-03-31T02:52:05;30.27;;;5.55;;
54517;SDS011;40423;53.176;6.002;2023-03-31T02:57:25;23.33;;;5.18;;
54517;SDS011;40423;53.176;6.002;2023-03-31T03:03:18;25.27;;;5.60;;
54517;SDS011;40423;53.176;6.002;2023-03-31T03:06:10;30.77;;;6.70;;
54517;SDS011;40423;53.176;6.002;2023-03-31T03:14:33;25.60;;;5.18;;
54517;SDS011;40423;53.176;6.002;2023-03-31T03:17:22;21.38;;;3.97;;
54517;SDS011;40423;53.176;6.002;2023-03-31T03:19:55;22.67;;;4.93;;
54517;SDS011;40423;53.176;6.002;2023-03-31T03:22:24;26.10;;;4.78;;
54517;SDS011;40423;53.176;6.002;2023-03-31T03:24:49;27.05;;;4.70;;
54517;SDS011;40423;53.176;6.002;2023-03-31T03:27:16;20.33;;;4.32;;
54517;SDS011;40423;53.176;6.002;2023-03-31T03:29:42;27.92;;;5.35;;
54517;SDS011;40423;53.176;6.002;2023-03-31T03:32:08;18.08;;;3.90;;
54517;SDS011;40423;53.176;6.002;2023-03-31T03:34:34;20.60;;;4.18;;
54517;SDS011;40423;53.176;6.002;2023-03-31T03:37:00;23.20;;;5.25;;
54517;SDS011;40423;53.176;6.002;2023-03-31T03:39:25;18.95;;;4.38;;
54517;SDS011;40423;53.176;6.002;2023-03-31T03:41:51;27.05;;;5.15;;
54517;SDS011;40423;53.176;6.002;2023-03-31T03:44:17;15.25;;;4.63;;
54517;SDS011;40423;53.176;6.002;2023-03-31T03:46:43;22.83;;;4.47;;
54517;SDS011;40423;53.176;6.002;2023-03-31T03:49:08;17.40;;;4.97;;
54517;SDS011;40423;53.176;6.002;2023-03-31T03:51:34;20.15;;;5.13;;
54517;SDS011;40423;53.176;6.002;2023-03-31T03:54:00;26.42;;;5.68;;
54517;SDS011;40423;53.176;6.002;2023-03-31T03:56:26;18.63;;;5.57;;
54517;SDS011;40423;53.176;6.002;2023-03-31T03:58:51;19.65;;;5.03;;
54517;SDS011;40423;53.176;6.002;2023-03-31T04:01:17;24.55;;;6.43;;
54517;SDS011;40423;53.176;6.002;2023-03-31T04:03:43;21.55;;;5.07;;
54517;SDS011;40423;53.176;6.002;2023-03-31T04:06:09;11.88;;;4.60;;
54517;SDS011;40423;53.176;6.002;2023-03-31T04:08:35;21.10;;;6.18;;
54517;SDS011;40423;53.176;6.002;2023-03-31T04:11:01;17.35;;;5.25;;
54517;SDS011;40423;53.176;6.002;2023-03-31T04:13:27;20.67;;;5.90;;
54517;SDS011;40423;53.176;6.002;2023-03-31T04:15:53;20.77;;;5.70;;
54517;SDS011;40423;53.176;6.002;2023-03-31T04:18:18;15.93;;;5.47;;
54517;SDS011;40423;53.176;6.002;2023-03-31T04:20:50;18.52;;;5.93;;
54517;SDS011;40423;53.176;6.002;2023-03-31T04:23:37;20.45;;;5.65;;
54517;SDS011;40423;53.176;6.002;2023-03-31T04:26:09;19.95;;;5.75;;
54517;SDS011;40423;53.176;6.002;2023-03-31T04:28:36;22.23;;;6.40;;
54517;SDS011;40423;53.176;6.002;2023-03-31T04:31:03;19.20;;;6.28;;
54517;SDS011;40423;53.176;6.002;2023-03-31T04:33:30;18.48;;;5.97;;
54517;SDS011;40423;53.176;6.002;2023-03-31T04:35:58;16.42;;;6.15;;
54517;SDS011;40423;53.176;6.002;2023-03-31T04:38:30;19.52;;;6.75;;
54517;SDS011;40423;53.176;6.002;2023-03-31T04:40:57;15.57;;;6.30;;
54517;SDS011;40423;53.176;6.002;2023-03-31T04:43:24;21.58;;;6.68;;
54517;SDS011;40423;53.176;6.002;2023-03-31T04:45:49;17.23;;;5.60;;
54517;SDS011;40423;53.176;6.002;2023-03-31T04:48:15;16.77;;;6.53;;
54517;SDS011;40423;53.176;6.002;2023-03-31T04:50:41;18.70;;;6.55;;
54517;SDS011;40423;53.176;6.002;2023-03-31T04:53:07;15.38;;;6.60;;
54517;SDS011;40423;53.176;6.002;2023-03-31T04:55:33;22.73;;;7.55;;
54517;SDS011;40423;53.176;6.002;2023-03-31T04:57:59;19.35;;;6.70;;
54517;SDS011;40423;53.176;6.002;2023-03-31T05:00:25;21.70;;;6.85;;
54517;SDS011;40423;53.176;6.002;2023-03-31T05:02:52;17.15;;;6.13;;
54517;SDS011;40423;53.176;6.002;2023-03-31T05:05:18;19.45;;;7.28;;
54517;SDS011;40423;53.176;6.002;2023-03-31T05:07:44;17.35;;;6.75;;
54517;SDS011;40423;53.176;6.002;2023-03-31T05:10:10;20.27;;;6.38;;
54517;SDS011;40423;53.176;6.002;2023-03-31T05:12:36;19.02;;;6.88;;
54517;SDS011;40423;53.176;6.002;2023-03-31T05:15:06;19.80;;;6.80;;
54517;SDS011;40423;53.176;6.002;2023-03-31T05:17:32;17.85;;;6.30;;
54517;SDS011;40423;53.176;6.002;2023-03-31T05:19:59;23.02;;;8.20;;
54517;SDS011;40423;53.176;6.002;2023-03-31T05:22:25;17.10;;;7.10;;
54517;SDS011;40423;53.176;6.002;2023-03-31T05:24:51;20.25;;;7.35;;
54517;SDS011;40423;53.176;6.002;2023-03-31T05:27:17;19.80;;;6.40;;
54517;SDS011;40423;53.176;6.002;2023-03-31T05:29:45;18.80;;;7.40;;
54517;SDS011;40423;53.176;6.002;2023-03-31T05:32:11;21.70;;;7.80;;
54517;SDS011;40423;53.176;6.002;2023-03-31T05:34:36;20.45;;;8.25;;
54517;SDS011;40423;53.176;6.002;2023-03-31T05:37:02;19.63;;;7.85;;
54517;SDS011;40423;53.176;6.002;2023-03-31T05:39:28;17.80;;;7.28;;
54517;SDS011;40423;53.176;6.002;2023-03-31T05:41:57;16.77;;;7.57;;
54517;SDS011;40423;53.176;6.002;2023-03-31T05:44:23;18.33;;;7.93;;
54517;SDS011;40423;53.176;6.002;2023-03-31T05:46:51;17.45;;;7.82;;
54517;SDS011;40423;53.176;6.002;2023-03-31T05:49:17;18.52;;;8.07;;
54517;SDS011;40423;53.176;6.002;2023-03-31T05:51:43;19.80;;;8.73;;
54517;SDS011;40423;53.176;6.002;2023-03-31T05:54:09;16.48;;;8.18;;
54517;SDS011;40423;53.176;6.002;2023-03-31T05:56:35;17.75;;;7.88;;
54517;SDS011;40423;53.176;6.002;2023-03-31T05:59:01;19.83;;;7.93;;
54517;SDS011;40423;53.176;6.002;2023-03-31T06:01:26;14.75;;;7.55;;
54517;SDS011;40423;53.176;6.002;2023-03-31T06:03:53;18.70;;;7.88;;
54517;SDS011;40423;53.176;6.002;2023-03-31T06:06:20;17.50;;;7.55;;
54517;SDS011;40423;53.176;6.002;2023-03-31T06:08:46;16.05;;;7.72;;
54517;SDS011;40423;53.176;6.002;2023-03-31T06:11:14;15.63;;;8.13;;
54517;SDS011;40423;53.176;6.002;2023-03-31T06:13:44;18.92;;;7.38;;
54517;SDS011;40423;53.176;6.002;2023-03-31T06:16:11;14.18;;;7.40;;
54517;SDS011;40423;53.176;6.002;2023-03-31T06:18:37;17.42;;;7.75;;
54517;SDS011;40423;53.176;6.002;2023-03-31T06:21:04;12.95;;;7.07;;
54517;SDS011;40423;53.176;6.002;2023-03-31T06:23:30;11.23;;;6.30;;
54517;SDS011;40423;53.176;6.002;2023-03-31T06:26:00;17.17;;;7.28;;
54517;SDS011;40423;53.176;6.002;2023-03-31T06:28:28;14.55;;;6.20;;
54517;SDS011;40423;53.176;6.002;2023-03-31T06:31:01;14.13;;;6.55;;
54517;SDS011;40423;53.176;6.002;2023-03-31T06:33:32;13.25;;;5.57;;
54517;SDS011;40423;53.176;6.002;2023-03-31T06:35:58;14.93;;;5.28;;
54517;SDS011;40423;53.176;6.002;2023-03-31T06:38:26;14.60;;;5.05;;
54517;SDS011;40423;53.176;6.002;2023-03-31T06:40:52;12.43;;;5.20;;
54517;SDS011;40423;53.176;6.002;2023-03-31T06:43:18;11.60;;;5.47;;
54517;SDS011;40423;53.176;6.002;2023-03-31T06:45:45;8.90;;;4.75;;
54517;SDS011;40423;53.176;6.002;2023-03-31T06:48:11;10.15;;;5.57;;
54517;SDS011;40423;53.176;6.002;2023-03-31T06:50:37;11.43;;;5.57;;
54517;SDS011;40423;53.176;6.002;2023-03-31T06:53:03;13.48;;;5.03;;
54517;SDS011;40423;53.176;6.002;2023-03-31T06:55:29;9.00;;;4.97;;
54517;SDS011;40423;53.176;6.002;2023-03-31T06:57:57;12.88;;;7.15;;
54517;SDS011;40423;53.176;6.002;2023-03-31T07:00:23;9.80;;;4.38;;
54517;SDS011;40423;53.176;6.002;2023-03-31T07:02:51;14.63;;;4.95;;
54517;SDS011;40423;53.176;6.002;2023-03-31T07:05:17;10.63;;;4.72;;
54517;SDS011;40423;53.176;6.002;2023-03-31T07:07:44;9.65;;;4.32;;
54517;SDS011;40423;53.176;6.002;2023-03-31T07:10:10;10.68;;;4.80;;
54517;SDS011;40423;53.176;6.002;2023-03-31T07:12:35;15.75;;;5.10;;
54517;SDS011;40423;53.176;6.002;2023-03-31T07:15:01;11.43;;;3.92;;
54517;SDS011;40423;53.176;6.002;2023-03-31T07:17:27;13.35;;;4.80;;
54517;SDS011;40423;53.176;6.002;2023-03-31T07:19:53;11.05;;;3.58;;
54517;SDS011;40423;53.176;6.002;2023-03-31T07:22:19;11.00;;;3.65;;
54517;SDS011;40423;53.176;6.002;2023-03-31T07:24:44;9.98;;;3.63;;
54517;SDS011;40423;53.176;6.002;2023-03-31T07:27:10;13.50;;;4.82;;
54517;SDS011;40423;53.176;6.002;2023-03-31T07:29:36;13.73;;;5.97;;
54517;SDS011;40423;53.176;6.002;2023-03-31T07:32:02;9.63;;;4.32;;
54517;SDS011;40423;53.176;6.002;2023-03-31T07:34:28;11.00;;;4.00;;
54517;SDS011;40423;53.176;6.002;2023-03-31T07:36:54;8.90;;;5.47;;
54517;SDS011;40423;53.176;6.002;2023-03-31T07:39:20;9.88;;;4.47;;
54517;SDS011;40423;53.176;6.002;2023-03-31T07:41:46;10.15;;;3.97;;
54517;SDS011;40423;53.176;6.002;2023-03-31T07:44:12;8.25;;;4.03;;
54517;SDS011;40423;53.176;6.002;2023-03-31T07:46:38;7.38;;;3.30;;
54517;SDS011;40423;53.176;6.002;2023-03-31T07:49:04;5.00;;;3.20;;
54517;SDS011;40423;53.176;6.002;2023-03-31T07:51:31;8.23;;;4.13;;
54517;SDS011;40423;53.176;6.002;2023-03-31T07:53:57;7.97;;;3.28;;
54517;SDS011;40423;53.176;6.002;2023-03-31T07:56:23;9.73;;;3.42;;
54517;SDS011;40423;53.176;6.002;2023-03-31T07:58:49;9.30;;;3.40;;
54517;SDS011;40423;53.176;6.002;2023-03-31T08:01:17;8.75;;;3.50;;
54517;SDS011;40423;53.176;6.002;2023-03-31T08:03:45;9.95;;;3.80;;
54517;SDS011;40423;53.176;6.002;2023-03-31T08:06:18;7.43;;;3.60;;
54517;SDS011;40423;53.176;6.002;2023-03-31T08:08:46;5.07;;;3.22;;
54517;SDS011;40423;53.176;6.002;2023-03-31T08:11:13;7.45;;;3.58;;
54517;SDS011;40423;53.176;6.002;2023-03-31T08:13:39;6.13;;;3.50;;
54517;SDS011;40423;53.176;6.002;2023-03-31T08:16:05;7.65;;;3.83;;
54517;SDS011;40423;53.176;6.002;2023-03-31T08:18:30;6.13;;;3.15;;
54517;SDS011;40423;53.176;6.002;2023-03-31T08:20:56;10.00;;;4.65;;
54517;SDS011;40423;53.176;6.002;2023-03-31T08:23:22;6.72;;;3.83;;
54517;SDS011;40423;53.176;6.002;2023-03-31T08:25:47;11.38;;;4.82;;
54517;SDS011;40423;53.176;6.002;2023-03-31T08:28:13;7.15;;;3.60;;
54517;SDS011;40423;53.176;6.002;2023-03-31T08:30:39;7.43;;;4.47;;
54517;SDS011;40423;53.176;6.002;2023-03-31T08:33:06;8.75;;;4.45;;
54517;SDS011;40423;53.176;6.002;2023-03-31T08:35:33;9.25;;;4.90;;
54517;SDS011;40423;53.176;6.002;2023-03-31T08:38:00;9.35;;;4.40;;
54517;SDS011;40423;53.176;6.002;2023-03-31T08:40:26;8.60;;;4.30;;
54517;SDS011;40423;53.176;6.002;2023-03-31T08:43:15;10.15;;;4.60;;
54517;SDS011;40423;53.176;6.002;2023-03-31T08:45:51;10.18;;;4.50;;
54517;SDS011;40423;53.176;6.002;2023-03-31T08:50:54;11.23;;;4.45;;
54517;SDS011;40423;53.176;6.002;2023-03-31T08:53:28;12.55;;;5.07;;
54517;SDS011;40423;53.176;6.002;2023-03-31T08:56:16;12.27;;;4.53;;
54517;SDS011;40423;53.176;6.002;2023-03-31T08:58:45;13.38;;;5.03;;
54517;SDS011;40423;53.176;6.002;2023-03-31T09:15:27;7.75;;;4.15;;
54517;SDS011;40423;53.176;6.002;2023-03-31T09:18:27;7.72;;;3.83;;
54517;SDS011;40423;53.176;6.002;2023-03-31T09:29:16;11.48;;;4.60;;
54517;SDS011;40423;53.176;6.002;2023-03-31T09:31:48;8.85;;;4.05;;
54517;SDS011;40423;53.176;6.002;2023-03-31T09:34:15;9.48;;;4.07;;
54517;SDS011;40423;53.176;6.002;2023-03-31T09:36:48;8.77;;;3.72;;
54517;SDS011;40423;53.176;6.002;2023-03-31T09:39:14;7.53;;;3.72;;
54517;SDS011;40423;53.176;6.002;2023-03-31T09:41:45;7.35;;;3.50;;
54517;SDS011;40423;53.176;6.002;2023-03-31T09:44:24;10.27;;;4.00;;
54517;SDS011;40423;53.176;6.002;2023-03-31T09:46:51;10.73;;;3.63;;
54517;SDS011;40423;53.176;6.002;2023-03-31T09:49:19;6.88;;;3.28;;
54517;SDS011;40423;53.176;6.002;2023-03-31T09:51:48;6.70;;;3.17;;
54517;SDS011;40423;53.176;6.002;2023-03-31T09:54:47;7.57;;;2.72;;
54517;SDS011;40423;53.176;6.002;2023-03-31T09:57:26;6.30;;;2.95;;
54517;SDS011;40423;53.176;6.002;2023-03-31T10:00:00;9.18;;;3.28;;
54517;SDS011;40423;53.176;6.002;2023-03-31T10:08:12;6.47;;;3.40;;
54517;SDS011;40423;53.176;6.002;2023-03-31T10:10:42;8.25;;;3.45;;
54517;SDS011;40423;53.176;6.002;2023-03-31T10:13:10;7.70;;;4.22;;
54517;SDS011;40423;53.176;6.002;2023-03-31T10:15:40;8.80;;;3.90;;
54517;SDS011;40423;53.176;6.002;2023-03-31T10:18:12;4.97;;;3.17;;
54517;SDS011;40423;53.176;6.002;2023-03-31T10:20:44;7.45;;;3.92;;
54517;SDS011;40423;53.176;6.002;2023-03-31T10:23:22;8.25;;;4.00;;
54517;SDS011;40423;53.176;6.002;2023-03-31T10:25:51;7.80;;;4.10;;
54517;SDS011;40423;53.176;6.002;2023-03-31T10:28:18;11.15;;;4.80;;
54517;SDS011;40423;53.176;6.002;2023-03-31T10:30:46;7.75;;;4.60;;
54517;SDS011;40423;53.176;6.002;2023-03-31T10:33:15;17.92;;;5.97;;
54517;SDS011;40423;53.176;6.002;2023-03-31T10:35:43;11.65;;;4.13;;
54517;SDS011;40423;53.176;6.002;2023-03-31T10:38:13;11.85;;;4.38;;
54517;SDS011;40423;53.176;6.002;2023-03-31T10:40:50;8.45;;;4.10;;
54517;SDS011;40423;53.176;6.002;2023-03-31T10:43:24;12.05;;;4.38;;
54517;SDS011;40423;53.176;6.002;2023-03-31T10:45:52;9.10;;;4.13;;
54517;SDS011;40423;53.176;6.002;2023-03-31T10:48:24;10.95;;;4.30;;
54517;SDS011;40423;53.176;6.002;2023-03-31T10:50:53;13.80;;;4.72;;
54517;SDS011;40423;53.176;6.002;2023-03-31T10:53:22;9.82;;;5.05;;
54517;SDS011;40423;53.176;6.002;2023-03-31T11:18:34;8.95;;;3.40;;
54517;SDS011;40423;53.176;6.002;2023-03-31T11:24:08;14.55;;;3.90;;
54517;SDS011;40423;53.176;6.002;2023-03-31T11:51:19;9.90;;;2.53;;
54517;SDS011;40423;53.176;6.002;2023-03-31T11:53:49;8.10;;;3.00;;
54517;SDS011;40423;53.176;6.002;2023-03-31T11:56:18;10.23;;;3.28;;
54517;SDS011;40423;53.176;6.002;2023-03-31T11:58:53;10.18;;;2.47;;
54517;SDS011;40423;53.176;6.002;2023-03-31T12:06:19;10.63;;;3.15;;
54517;SDS011;40423;53.176;6.002;2023-03-31T12:08:49;6.40;;;2.17;;
54517;SDS011;40423;53.176;6.002;2023-03-31T12:11:23;6.47;;;2.17;;
54517;SDS011;40423;53.176;6.002;2023-03-31T12:14:00;6.63;;;2.67;;
54517;SDS011;40423;53.176;6.002;2023-03-31T12:16:42;7.30;;;2.88;;
54517;SDS011;40423;53.176;6.002;2023-03-31T12:19:13;11.35;;;2.90;;
54517;SDS011;40423;53.176;6.002;2023-03-31T12:21:55;10.57;;;3.40;;
54517;SDS011;40423;53.176;6.002;2023-03-31T12:24:33;8.40;;;3.13;;
54517;SDS011;40423;53.176;6.002;2023-03-31T12:29:46;11.68;;;3.60;;
54517;SDS011;40423;53.176;6.002;2023-03-31T12:32:23;8.45;;;3.67;;
54517;SDS011;40423;53.176;6.002;2023-03-31T12:34:55;13.50;;;4.45;;
54517;SDS011;40423;53.176;6.002;2023-03-31T12:52:14;11.20;;;3.78;;
54517;SDS011;40423;53.176;6.002;2023-03-31T12:57:33;10.30;;;3.00;;
54517;SDS011;40423;53.176;6.002;2023-03-31T13:05:54;13.43;;;3.47;;
54517;SDS011;40423;53.176;6.002;2023-03-31T13:11:14;8.85;;;2.13;;
54517;SDS011;40423;53.176;6.002;2023-03-31T13:13:45;7.72;;;2.03;;
54517;SDS011;40423;53.176;6.002;2023-03-31T13:16:20;6.53;;;2.10;;
54517;SDS011;40423;53.176;6.002;2023-03-31T13:18:52;9.90;;;2.58;;
54517;SDS011;40423;53.176;6.002;2023-03-31T13:21:19;6.82;;;2.08;;
54517;SDS011;40423;53.176;6.002;2023-03-31T13:23:45;5.25;;;1.98;;
54517;SDS011;40423;53.176;6.002;2023-03-31T13:26:45;8.30;;;2.03;;
54517;SDS011;40423;53.176;6.002;2023-03-31T13:29:09;9.57;;;2.63;;
54517;SDS011;40423;53.176;6.002;2023-03-31T13:48:16;5.97;;;1.83;;
54517;SDS011;40423;53.176;6.002;2023-03-31T14:02:31;6.72;;;2.47;;
54517;SDS011;40423;53.176;6.002;2023-03-31T14:05:23;9.35;;;2.30;;
54517;SDS011;40423;53.176;6.002;2023-03-31T14:10:28;4.15;;;1.48;;
54517;SDS011;40423;53.176;6.002;2023-03-31T14:13:03;6.78;;;1.50;;
54517;SDS011;40423;53.176;6.002;2023-03-31T14:18:13;7.78;;;1.75;;
54517;SDS011;40423;53.176;6.002;2023-03-31T14:32:39;5.53;;;1.60;;
54517;SDS011;40423;53.176;6.002;2023-03-31T14:37:54;5.97;;;1.70;;
54517;SDS011;40423;53.176;6.002;2023-03-31T14:40:20;6.05;;;2.15;;
54517;SDS011;40423;53.176;6.002;2023-03-31T14:42:48;6.80;;;1.80;;
54517;SDS011;40423;53.176;6.002;2023-03-31T14:45:26;6.05;;;1.70;;
54517;SDS011;40423;53.176;6.002;2023-03-31T14:48:02;6.13;;;1.60;;
54517;SDS011;40423;53.176;6.002;2023-03-31T14:50:37;7.05;;;1.38;;
54517;SDS011;40423;53.176;6.002;2023-03-31T14:53:17;5.97;;;1.90;;
54517;SDS011;40423;53.176;6.002;2023-03-31T14:55:48;6.47;;;1.70;;
54517;SDS011;40423;53.176;6.002;2023-03-31T14:58:16;4.07;;;1.50;;
54517;SDS011;40423;53.176;6.002;2023-03-31T15:03:25;4.20;;;1.35;;
54517;SDS011;40423;53.176;6.002;2023-03-31T15:05:54;5.57;;;1.45;;
54517;SDS011;40423;53.176;6.002;2023-03-31T15:08:25;4.85;;;1.50;;
54517;SDS011;40423;53.176;6.002;2023-03-31T15:10:55;3.47;;;1.52;;
54517;SDS011;40423;53.176;6.002;2023-03-31T15:13:33;4.68;;;1.30;;
54517;SDS011;40423;53.176;6.002;2023-03-31T15:16:17;6.20;;;1.70;;
54517;SDS011;40423;53.176;6.002;2023-03-31T15:21:40;4.43;;;1.30;;
54517;SDS011;40423;53.176;6.002;2023-03-31T15:24:06;4.93;;;1.48;;
54517;SDS011;40423;53.176;6.002;2023-03-31T15:29:48;4.53;;;1.38;;
54517;SDS011;40423;53.176;6.002;2023-03-31T15:32:20;7.10;;;1.35;;
54517;SDS011;40423;53.176;6.002;2023-03-31T15:34:50;6.95;;;1.65;;
54517;SDS011;40423;53.176;6.002;2023-03-31T15:37:19;4.25;;;1.50;;
54517;SDS011;40423;53.176;6.002;2023-03-31T15:39:47;7.63;;;1.75;;
54517;SDS011;40423;53.176;6.002;2023-03-31T15:42:13;7.10;;;1.83;;
54517;SDS011;40423;53.176;6.002;2023-03-31T15:44:43;6.13;;;1.60;;
54517;SDS011;40423;53.176;6.002;2023-03-31T15:47:18;6.28;;;1.52;;
54517;SDS011;40423;53.176;6.002;2023-03-31T15:49:50;7.70;;;1.70;;
54517;SDS011;40423;53.176;6.002;2023-03-31T15:52:26;10.13;;;1.85;;
54517;SDS011;40423;53.176;6.002;2023-03-31T15:54:59;6.18;;;1.80;;
54517;SDS011;40423;53.176;6.002;2023-03-31T15:57:29;6.03;;;1.90;;
54517;SDS011;40423;53.176;6.002;2023-03-31T15:59:57;5.95;;;2.00;;
54517;SDS011;40423;53.176;6.002;2023-03-31T16:02:25;12.00;;;6.28;;
54517;SDS011;40423;53.176;6.002;2023-03-31T16:05:01;8.43;;;2.53;;
54517;SDS011;40423;53.176;6.002;2023-03-31T16:07:34;8.95;;;2.25;;
54517;SDS011;40423;53.176;6.002;2023-03-31T16:12:40;9.48;;;1.70;;
54517;SDS011;40423;53.176;6.002;2023-03-31T16:15:28;5.63;;;1.77;;
54517;SDS011;40423;53.176;6.002;2023-03-31T16:18:43;6.63;;;4.80;;
54517;SDS011;40423;53.176;6.002;2023-03-31T16:21:08;6.65;;;2.45;;
54517;SDS011;40423;53.176;6.002;2023-03-31T16:23:36;4.65;;;1.70;;
54517;SDS011;40423;53.176;6.002;2023-03-31T16:26:05;2.83;;;1.35;;
54517;SDS011;40423;53.176;6.002;2023-03-31T16:28:33;6.78;;;1.60;;
54517;SDS011;40423;53.176;6.002;2023-03-31T16:31:01;9.27;;;2.00;;
54517;SDS011;40423;53.176;6.002;2023-03-31T16:33:28;5.43;;;1.67;;
54517;SDS011;40423;53.176;6.002;2023-03-31T16:35:55;4.90;;;1.80;;
54517;SDS011;40423;53.176;6.002;2023-03-31T16:38:23;6.88;;;1.83;;
54517;SDS011;40423;53.176;6.002;2023-03-31T16:40:51;7.85;;;2.40;;
54517;SDS011;40423;53.176;6.002;2023-03-31T16:45:47;5.90;;;1.73;;
54517;SDS011;40423;53.176;6.002;2023-03-31T16:48:14;9.60;;;2.78;;
54517;SDS011;40423;53.176;6.002;2023-03-31T16:50:42;8.95;;;3.03;;
54517;SDS011;40423;53.176;6.002;2023-03-31T16:53:12;7.55;;;2.70;;
54517;SDS011;40423;53.176;6.002;2023-03-31T16:55:39;7.25;;;2.45;;
54517;SDS011;40423;53.176;6.002;2023-03-31T16:58:05;8.68;;;2.70;;
54517;SDS011;40423;53.176;6.002;2023-03-31T17:00:31;9.75;;;2.60;;
54517;SDS011;40423;53.176;6.002;2023-03-31T17:03:01;9.60;;;3.25;;
54517;SDS011;40423;53.176;6.002;2023-03-31T17:05:28;8.73;;;3.75;;
54517;SDS011;40423;53.176;6.002;2023-03-31T17:07:58;11.68;;;4.38;;
54517;SDS011;40423;53.176;6.002;2023-03-31T17:10:24;10.80;;;3.83;;
54517;SDS011;40423;53.176;6.002;2023-03-31T17:12:50;9.20;;;3.35;;
54517;SDS011;40423;53.176;6.002;2023-03-31T17:15:16;9.70;;;2.83;;
54517;SDS011;40423;53.176;6.002;2023-03-31T17:17:42;8.65;;;2.40;;
54517;SDS011;40423;53.176;6.002;2023-03-31T17:20:14;7.90;;;2.63;;
54517;SDS011;40423;53.176;6.002;2023-03-31T17:22:40;7.93;;;2.85;;
54517;SDS011;40423;53.176;6.002;2023-03-31T17:25:09;7.70;;;2.10;;
54517;SDS011;40423;53.176;6.002;2023-03-31T17:27:35;6.78;;;2.00;;
54517;SDS011;40423;53.176;6.002;2023-03-31T17:30:01;7.38;;;2.40;;
54517;SDS011;40423;53.176;6.002;2023-03-31T17:32:27;6.55;;;2.58;;
54517;SDS011;40423;53.176;6.002;2023-03-31T17:34:53;10.93;;;2.80;;
54517;SDS011;40423;53.176;6.002;2023-03-31T17:37:19;7.07;;;1.80;;
54517;SDS011;40423;53.176;6.002;2023-03-31T17:39:45;9.20;;;2.55;;
54517;SDS011;40423;53.176;6.002;2023-03-31T17:42:11;5.82;;;1.90;;
54517;SDS011;40423;53.176;6.002;2023-03-31T17:44:38;6.18;;;1.67;;
54517;SDS011;40423;53.176;6.002;2023-03-31T17:47:05;5.63;;;2.08;;
54517;SDS011;40423;53.176;6.002;2023-03-31T17:49:31;5.00;;;1.60;;
54517;SDS011;40423;53.176;6.002;2023-03-31T17:51:57;5.05;;;1.83;;
54517;SDS011;40423;53.176;6.002;2023-03-31T17:54:26;3.42;;;1.35;;
54517;SDS011;40423;53.176;6.002;2023-03-31T17:56:52;2.28;;;0.93;;
54517;SDS011;40423;53.176;6.002;2023-03-31T17:59:18;2.58;;;1.13;;
54517;SDS011;40423;53.176;6.002;2023-03-31T18:01:44;4.00;;;1.48;;
54517;SDS011;40423;53.176;6.002;2023-03-31T18:04:13;5.38;;;1.80;;
54517;SDS011;40423;53.176;6.002;2023-03-31T18:06:39;3.40;;;1.30;;
54517;SDS011;40423;53.176;6.002;2023-03-31T18:09:06;2.97;;;1.33;;
54517;SDS011;40423;53.176;6.002;2023-03-31T18:11:33;3.72;;;1.40;;
54517;SDS011;40423;53.176;6.002;2023-03-31T18:13:59;2.85;;;1.30;;
54517;SDS011;40423;53.176;6.002;2023-03-31T18:16:27;5.55;;;1.38;;
54517;SDS011;40423;53.176;6.002;2023-03-31T18:18:53;2.70;;;1.02;;
54517;SDS011;40423;53.176;6.002;2023-03-31T18:21:19;3.40;;;1.40;;
54517;SDS011;40423;53.176;6.002;2023-03-31T18:23:48;4.68;;;1.90;;
54517;SDS011;40423;53.176;6.002;2023-03-31T18:26:19;4.68;;;1.40;;
54517;SDS011;40423;53.176;6.002;2023-03-31T18:28:50;2.88;;;1.60;;
54517;SDS011;40423;53.176;6.002;2023-03-31T18:31:16;4.40;;;1.60;;